sensor_id;sensor_type;location;lat;lon;timestamp;pressure;altitude;pressure_sealevel;temperature;humidity
83664;BME280;73634;47.068;15.426;2024-01-30T00:00:39;99376.91;;;-1.40;71.98
83664;BME280;73634;47.068;15.426;2024-01-30T00:03:04;99379.63;;;-1.41;72.68
83664;BME280;73634;47.068;15.426;2024-01-30T00:05:30;99382.63;;;-1.46;73.14
83664;BME280;73634;47.068;15.426;2024-01-30T00:07:55;99383.72;;;-1.48;72.50
83664;BME280;73634;47.068;15.426;2024-01-30T00:10:21;99379.72;;;-1.51;72.82
83664;BME280;73634;47.068;15.426;2024-01-30T00:12:46;99383.06;;;-1.50;72.73
83664;BME280;73634;47.068;15.426;2024-01-30T00:18:04;99382.44;;;-1.52;72.76
83664;BME280;73634;47.068;15.426;2024-01-30T00:20:29;99377.78;;;-1.57;72.84
83664;BME280;73634;47.068;15.426;2024-01-30T00:22:54;99375.22;;;-1.57;73.00
83664;BME280;73634;47.068;15.426;2024-01-30T00:25:20;99380.47;;;-1.58;73.19
83664;BME280;73634;47.068;15.426;2024-01-30T00:27:45;99380.63;;;-1.60;73.62
83664;BME280;73634;47.068;15.426;2024-01-30T00:30:11;99373.63;;;-1.58;72.91
83664;BME280;73634;47.068;15.426;2024-01-30T00:32:37;99380.31;;;-1.57;73.15
83664;BME280;73634;47.068;15.426;2024-01-30T00:35:02;99384.63;;;-1.57;73.20
83664;BME280;73634;47.068;15.426;2024-01-30T00:37:28;99389.88;;;-1.59;72.94
83664;BME280;73634;47.068;15.426;2024-01-30T00:42:26;99388.28;;;-1.60;73.16
83664;BME280;73634;47.068;15.426;2024-01-30T00:44:51;99388.63;;;-1.63;73.78
83664;BME280;73634;47.068;15.426;2024-01-30T00:47:17;99387.00;;;-1.64;73.94
83664;BME280;73634;47.068;15.426;2024-01-30T00:49:42;99387.81;;;-1.63;73.08
83664;BME280;73634;47.068;15.426;2024-01-30T00:52:08;99386.84;;;-1.62;73.43
83664;BME280;73634;47.068;15.426;2024-01-30T00:54:33;99383.50;;;-1.63;73.50
83664;BME280;73634;47.068;15.426;2024-01-30T00:56:58;99384.97;;;-1.60;73.35
83664;BME280;73634;47.068;15.426;2024-01-30T00:59:24;99382.84;;;-1.65;73.16
83664;BME280;73634;47.068;15.426;2024-01-30T01:01:50;99378.19;;;-1.70;73.28
83664;BME280;73634;47.068;15.426;2024-01-30T01:04:15;99380.25;;;-1.73;73.56
83664;BME280;73634;47.068;15.426;2024-01-30T01:09:06;99384.19;;;-1.79;73.34
83664;BME280;73634;47.068;15.426;2024-01-30T01:11:32;99380.19;;;-1.81;73.32
83664;BME280;73634;47.068;15.426;2024-01-30T01:13:57;99380.78;;;-1.87;73.83
83664;BME280;73634;47.068;15.426;2024-01-30T01:16:23;99383.78;;;-1.92;74.17
83664;BME280;73634;47.068;15.426;2024-01-30T01:18:48;99384.22;;;-1.96;74.43
83664;BME280;73634;47.068;15.426;2024-01-30T01:21:13;99378.19;;;-1.95;74.37
83664;BME280;73634;47.068;15.426;2024-01-30T01:23:39;99383.44;;;-1.97;74.01
83664;BME280;73634;47.068;15.426;2024-01-30T01:26:04;99380.72;;;-1.95;73.93
83664;BME280;73634;47.068;15.426;2024-01-30T01:28:30;99376.25;;;-2.02;74.63
83664;BME280;73634;47.068;15.426;2024-01-30T01:32:32;99367.00;;;-2.03;74.30
83664;BME280;73634;47.068;15.426;2024-01-30T01:34:57;99368.91;;;-2.05;74.69
83664;BME280;73634;47.068;15.426;2024-01-30T01:37:22;99368.75;;;-2.03;75.11
83664;BME280;73634;47.068;15.426;2024-01-30T01:39:51;99361.25;;;-2.05;74.89
83664;BME280;73634;47.068;15.426;2024-01-30T01:42:17;99358.19;;;-2.08;74.81
83664;BME280;73634;47.068;15.426;2024-01-30T01:44:42;99361.53;;;-2.08;75.08
83664;BME280;73634;47.068;15.426;2024-01-30T01:47:08;99361.25;;;-2.05;74.92
83664;BME280;73634;47.068;15.426;2024-01-30T01:49:33;99358.56;;;-2.03;74.85
83664;BME280;73634;47.068;15.426;2024-01-30T01:51:59;99363.94;;;-2.06;74.60
83664;BME280;73634;47.068;15.426;2024-01-30T01:57:01;99361.78;;;-2.19;75.63
83664;BME280;73634;47.068;15.426;2024-01-30T01:59:27;99364.31;;;-2.19;75.32
83664;BME280;73634;47.068;15.426;2024-01-30T02:01:54;99362.44;;;-2.17;75.17
83664;BME280;73634;47.068;15.426;2024-01-30T02:04:20;99360.53;;;-2.15;74.66
83664;BME280;73634;47.068;15.426;2024-01-30T02:06:46;99364.69;;;-2.14;74.66
83664;BME280;73634;47.068;15.426;2024-01-30T02:09:11;99360.97;;;-2.19;75.10
83664;BME280;73634;47.068;15.426;2024-01-30T02:11:37;99360.81;;;-2.18;74.75
83664;BME280;73634;47.068;15.426;2024-01-30T02:14:03;99363.22;;;-2.16;74.56
83664;BME280;73634;47.068;15.426;2024-01-30T02:16:29;99354.28;;;-2.20;74.56
83664;BME280;73634;47.068;15.426;2024-01-30T02:18:55;99358.72;;;-2.22;74.74
83664;BME280;73634;47.068;15.426;2024-01-30T02:22:26;99362.22;;;-2.23;74.94
83664;BME280;73634;47.068;15.426;2024-01-30T02:24:52;99362.22;;;-2.23;75.40
83664;BME280;73634;47.068;15.426;2024-01-30T02:27:17;99359.16;;;-2.27;75.03
83664;BME280;73634;47.068;15.426;2024-01-30T02:29:43;99358.50;;;-2.29;75.44
83664;BME280;73634;47.068;15.426;2024-01-30T02:32:08;99357.41;;;-2.26;74.90
83664;BME280;73634;47.068;15.426;2024-01-30T02:34:33;99355.97;;;-2.29;74.89
83664;BME280;73634;47.068;15.426;2024-01-30T02:36:59;99354.34;;;-2.30;75.42
83664;BME280;73634;47.068;15.426;2024-01-30T02:39:24;99348.25;;;-2.37;76.15
83664;BME280;73634;47.068;15.426;2024-01-30T02:41:50;99358.28;;;-2.36;75.91
83664;BME280;73634;47.068;15.426;2024-01-30T02:46:53;99350.94;;;-2.74;78.99
83664;BME280;73634;47.068;15.426;2024-01-30T02:49:19;99360.06;;;-2.89;79.31
83664;BME280;73634;47.068;15.426;2024-01-30T02:51:45;99358.97;;;-2.87;79.46
83664;BME280;73634;47.068;15.426;2024-01-30T02:54:10;99361.00;;;-2.90;79.62
83664;BME280;73634;47.068;15.426;2024-01-30T02:56:35;99357.28;;;-2.96;79.53
83664;BME280;73634;47.068;15.426;2024-01-30T02:59:01;99359.16;;;-2.98;79.92
83664;BME280;73634;47.068;15.426;2024-01-30T03:01:26;99355.59;;;-3.05;80.51
83664;BME280;73634;47.068;15.426;2024-01-30T03:03:51;99351.28;;;-3.05;80.75
83664;BME280;73634;47.068;15.426;2024-01-30T03:06:17;99358.28;;;-3.07;81.03
83664;BME280;73634;47.068;15.426;2024-01-30T03:11:20;99345.59;;;-3.16;80.79
83664;BME280;73634;47.068;15.426;2024-01-30T03:13:46;99344.88;;;-3.26;81.75
83664;BME280;73634;47.068;15.426;2024-01-30T03:16:11;99342.03;;;-3.23;81.13
83664;BME280;73634;47.068;15.426;2024-01-30T03:18:36;99345.53;;;-3.24;81.39
83664;BME280;73634;47.068;15.426;2024-01-30T03:21:02;99347.41;;;-3.26;81.80
83664;BME280;73634;47.068;15.426;2024-01-30T03:23:27;99344.34;;;-3.30;82.85
83664;BME280;73634;47.068;15.426;2024-01-30T03:25:53;99349.19;;;-3.37;82.59
83664;BME280;73634;47.068;15.426;2024-01-30T03:28:18;99341.41;;;-3.35;82.55
83664;BME280;73634;47.068;15.426;2024-01-30T03:30:43;99338.59;;;-3.32;82.45
83664;BME280;73634;47.068;15.426;2024-01-30T03:33:09;99339.41;;;-3.31;82.54
83664;BME280;73634;47.068;15.426;2024-01-30T03:37:32;99342.88;;;-3.32;82.16
83664;BME280;73634;47.068;15.426;2024-01-30T03:39:57;99346.66;;;-3.37;82.39
83664;BME280;73634;47.068;15.426;2024-01-30T03:42:23;99338.06;;;-3.36;82.13
83664;BME280;73634;47.068;15.426;2024-01-30T03:44:48;99339.81;;;-3.36;82.61
83664;BME280;73634;47.068;15.426;2024-01-30T03:47:17;99337.28;;;-3.36;82.33
83664;BME280;73634;47.068;15.426;2024-01-30T03:49:42;99340.91;;;-3.39;81.94
83664;BME280;73634;47.068;15.426;2024-01-30T03:52:07;99340.63;;;-3.36;81.84
83664;BME280;73634;47.068;15.426;2024-01-30T03:54:33;99346.59;;;-3.27;81.74
83664;BME280;73634;47.068;15.426;2024-01-30T03:56:58;99353.97;;;-3.24;82.03
83664;BME280;73634;47.068;15.426;2024-01-30T04:02:00;99339.91;;;-3.28;82.13
83664;BME280;73634;47.068;15.426;2024-01-30T04:04:25;99341.38;;;-3.25;81.79
83664;BME280;73634;47.068;15.426;2024-01-30T04:06:51;99341.50;;;-3.27;81.43
83664;BME280;73634;47.068;15.426;2024-01-30T04:09:16;99350.09;;;-3.28;81.08
83664;BME280;73634;47.068;15.426;2024-01-30T04:11:41;99339.13;;;-3.28;81.30
83664;BME280;73634;47.068;15.426;2024-01-30T04:14:08;99340.19;;;-3.31;81.12
83664;BME280;73634;47.068;15.426;2024-01-30T04:16:33;99351.59;;;-3.35;82.17
83664;BME280;73634;47.068;15.426;2024-01-30T04:18:58;99344.38;;;-3.40;81.46
83664;BME280;73634;47.068;15.426;2024-01-30T04:21:24;99350.69;;;-3.44;81.28
83664;BME280;73634;47.068;15.426;2024-01-30T04:26:21;99347.44;;;-3.36;81.53
83664;BME280;73634;47.068;15.426;2024-01-30T04:28:46;99344.09;;;-3.37;81.46
83664;BME280;73634;47.068;15.426;2024-01-30T04:31:12;99341.03;;;-3.40;81.02
83664;BME280;73634;47.068;15.426;2024-01-30T04:33:37;99348.13;;;-3.34;81.57
83664;BME280;73634;47.068;15.426;2024-01-30T04:36:03;99350.50;;;-3.32;81.18
83664;BME280;73634;47.068;15.426;2024-01-30T04:38:29;99350.09;;;-3.28;81.02
83664;BME280;73634;47.068;15.426;2024-01-30T04:40:54;99352.34;;;-3.25;80.19
83664;BME280;73634;47.068;15.426;2024-01-30T04:43:19;99350.47;;;-3.23;79.81
83664;BME280;73634;47.068;15.426;2024-01-30T04:45:45;99345.28;;;-3.31;79.95
83664;BME280;73634;47.068;15.426;2024-01-30T04:48:11;99344.63;;;-3.33;79.79
83664;BME280;73634;47.068;15.426;2024-01-30T04:51:46;99346.78;;;-3.38;80.22
83664;BME280;73634;47.068;15.426;2024-01-30T04:54:12;99340.63;;;-3.36;80.03
83664;BME280;73634;47.068;15.426;2024-01-30T04:56:37;99343.44;;;-3.39;79.53
83664;BME280;73634;47.068;15.426;2024-01-30T04:59:04;99343.06;;;-3.44;79.54
83664;BME280;73634;47.068;15.426;2024-01-30T05:01:30;99337.84;;;-3.42;79.38
83664;BME280;73634;47.068;15.426;2024-01-30T05:03:55;99347.75;;;-3.49;79.34
83664;BME280;73634;47.068;15.426;2024-01-30T05:06:24;99351.25;;;-3.50;79.42
83664;BME280;73634;47.068;15.426;2024-01-30T05:08:50;99340.00;;;-3.47;79.47
83664;BME280;73634;47.068;15.426;2024-01-30T05:11:15;99346.81;;;-3.48;79.68
83664;BME280;73634;47.068;15.426;2024-01-30T05:13:41;99344.81;;;-3.44;79.64
83664;BME280;73634;47.068;15.426;2024-01-30T05:17:28;99349.22;;;-3.46;79.22
83664;BME280;73634;47.068;15.426;2024-01-30T05:19:53;99347.75;;;-3.49;79.66
83664;BME280;73634;47.068;15.426;2024-01-30T05:22:18;99360.22;;;-3.46;79.14
83664;BME280;73634;47.068;15.426;2024-01-30T05:24:44;99358.75;;;-3.48;79.20
83664;BME280;73634;47.068;15.426;2024-01-30T05:27:11;99357.13;;;-3.49;79.75
83664;BME280;73634;47.068;15.426;2024-01-30T05:29:41;99358.50;;;-3.55;79.68
83664;BME280;73634;47.068;15.426;2024-01-30T05:32:07;99356.09;;;-3.56;79.54
83664;BME280;73634;47.068;15.426;2024-01-30T05:34:32;99360.25;;;-3.55;80.44
83664;BME280;73634;47.068;15.426;2024-01-30T05:36:58;99357.13;;;-3.49;79.97
83664;BME280;73634;47.068;15.426;2024-01-30T05:39:23;99354.19;;;-3.45;79.10
83664;BME280;73634;47.068;15.426;2024-01-30T05:43:40;99361.28;;;-3.48;79.04
83664;BME280;73634;47.068;15.426;2024-01-30T05:46:06;99367.03;;;-3.46;79.73
83664;BME280;73634;47.068;15.426;2024-01-30T05:48:31;99364.22;;;-3.43;79.47
83664;BME280;73634;47.068;15.426;2024-01-30T05:50:57;99360.22;;;-3.46;79.17
83664;BME280;73634;47.068;15.426;2024-01-30T05:53:22;99359.53;;;-3.48;78.99
83664;BME280;73634;47.068;15.426;2024-01-30T05:55:48;99368.78;;;-3.47;78.91
83664;BME280;73634;47.068;15.426;2024-01-30T05:58:13;99363.56;;;-3.45;78.84
83664;BME280;73634;47.068;15.426;2024-01-30T06:00:38;99360.88;;;-3.44;78.83
83664;BME280;73634;47.068;15.426;2024-01-30T06:03:04;99361.78;;;-3.35;78.94
83664;BME280;73634;47.068;15.426;2024-01-30T06:08:09;99356.53;;;-3.33;78.10
83664;BME280;73634;47.068;15.426;2024-01-30T06:10:35;99354.00;;;-3.33;79.01
83664;BME280;73634;47.068;15.426;2024-01-30T06:13:00;99346.88;;;-3.30;78.60
83664;BME280;73634;47.068;15.426;2024-01-30T06:15:25;99357.78;;;-3.38;79.00
83664;BME280;73634;47.068;15.426;2024-01-30T06:17:51;99353.88;;;-3.32;78.66
83664;BME280;73634;47.068;15.426;2024-01-30T06:20:17;99351.19;;;-3.30;79.05
83664;BME280;73634;47.068;15.426;2024-01-30T06:22:43;99359.91;;;-3.33;78.61
83664;BME280;73634;47.068;15.426;2024-01-30T06:25:08;99351.47;;;-3.33;78.84
83664;BME280;73634;47.068;15.426;2024-01-30T06:27:33;99353.16;;;-3.24;78.75
83664;BME280;73634;47.068;15.426;2024-01-30T06:29:59;99354.47;;;-3.20;78.84
83664;BME280;73634;47.068;15.426;2024-01-30T06:34:19;99353.47;;;-3.10;77.76
83664;BME280;73634;47.068;15.426;2024-01-30T06:36:44;99348.91;;;-2.71;76.73
83664;BME280;73634;47.068;15.426;2024-01-30T06:39:09;99349.81;;;-2.44;74.36
83664;BME280;73634;47.068;15.426;2024-01-30T06:41:35;99350.13;;;-1.95;73.02
83664;BME280;73634;47.068;15.426;2024-01-30T06:44:02;99343.78;;;-1.15;69.81
83664;BME280;73634;47.068;15.426;2024-01-30T06:46:28;99349.19;;;-0.27;67.22
83664;BME280;73634;47.068;15.426;2024-01-30T06:48:53;99350.25;;;0.19;66.29
83664;BME280;73634;47.068;15.426;2024-01-30T06:51:19;99347.16;;;1.10;62.06
83664;BME280;73634;47.068;15.426;2024-01-30T06:53:44;99345.78;;;1.67;59.21
83664;BME280;73634;47.068;15.426;2024-01-30T06:58:26;99360.50;;;0.11;62.52
83664;BME280;73634;47.068;15.426;2024-01-30T07:00:51;99354.00;;;0.47;61.66
83664;BME280;73634;47.068;15.426;2024-01-30T07:03:17;99354.72;;;1.03;60.44
83664;BME280;73634;47.068;15.426;2024-01-30T07:05:42;99349.28;;;1.52;59.11
83664;BME280;73634;47.068;15.426;2024-01-30T07:08:08;99350.19;;;2.55;55.88
83664;BME280;73634;47.068;15.426;2024-01-30T07:10:33;99349.66;;;3.32;52.71
83664;BME280;73634;47.068;15.426;2024-01-30T07:13:00;99353.66;;;2.77;52.74
83664;BME280;73634;47.068;15.426;2024-01-30T07:15:26;99346.44;;;3.45;51.62
83664;BME280;73634;47.068;15.426;2024-01-30T07:17:51;99340.38;;;4.36;49.48
83664;BME280;73634;47.068;15.426;2024-01-30T07:20:16;99342.41;;;5.01;47.94
83664;BME280;73634;47.068;15.426;2024-01-30T07:24:52;99340.47;;;5.23;46.70
83664;BME280;73634;47.068;15.426;2024-01-30T07:27:18;99351.38;;;4.23;48.31
83664;BME280;73634;47.068;15.426;2024-01-30T07:29:43;99345.25;;;4.65;47.88
83664;BME280;73634;47.068;15.426;2024-01-30T07:32:09;99349.81;;;5.31;46.41
83664;BME280;73634;47.068;15.426;2024-01-30T07:34:34;99350.25;;;5.41;45.53
83664;BME280;73634;47.068;15.426;2024-01-30T07:37:01;99345.31;;;5.92;44.87
83664;BME280;73634;47.068;15.426;2024-01-30T07:39:27;99349.84;;;5.70;45.69
83664;BME280;73634;47.068;15.426;2024-01-30T07:41:52;99346.66;;;7.24;41.20
83664;BME280;73634;47.068;15.426;2024-01-30T07:44:17;99348.28;;;7.50;39.84
83664;BME280;73634;47.068;15.426;2024-01-30T07:46:43;99352.97;;;7.34;41.04
83664;BME280;73634;47.068;15.426;2024-01-30T07:50:48;99351.09;;;7.48;40.19
83664;BME280;73634;47.068;15.426;2024-01-30T07:53:13;99346.16;;;7.09;41.07
83664;BME280;73634;47.068;15.426;2024-01-30T07:55:45;99343.59;;;7.65;39.84
83664;BME280;73634;47.068;15.426;2024-01-30T07:58:12;99347.94;;;7.96;39.46
83664;BME280;73634;47.068;15.426;2024-01-30T08:00:37;99350.25;;;7.54;39.67
83664;BME280;73634;47.068;15.426;2024-01-30T08:03:03;99348.63;;;7.85;39.51
83664;BME280;73634;47.068;15.426;2024-01-30T08:05:29;99351.50;;;6.76;42.30
83664;BME280;73634;47.068;15.426;2024-01-30T08:07:54;99354.31;;;7.68;41.37
83664;BME280;73634;47.068;15.426;2024-01-30T08:10:20;99349.38;;;8.72;38.84
83664;BME280;73634;47.068;15.426;2024-01-30T08:15:29;99346.50;;;9.51;36.69
83664;BME280;73634;47.068;15.426;2024-01-30T08:17:54;99352.72;;;10.95;33.91
83664;BME280;73634;47.068;15.426;2024-01-30T08:20:23;99354.00;;;9.94;34.77
83664;BME280;73634;47.068;15.426;2024-01-30T08:22:49;99367.16;;;8.07;39.08
83664;BME280;73634;47.068;15.426;2024-01-30T08:25:14;99368.22;;;8.42;39.00
83664;BME280;73634;47.068;15.426;2024-01-30T08:27:40;99359.84;;;9.78;36.24
83664;BME280;73634;47.068;15.426;2024-01-30T08:30:08;99356.47;;;9.78;35.14
83664;BME280;73634;47.068;15.426;2024-01-30T08:32:34;99355.78;;;9.29;35.62
83664;BME280;73634;47.068;15.426;2024-01-30T08:34:59;99354.72;;;9.60;36.13
83664;BME280;73634;47.068;15.426;2024-01-30T08:37:25;99349.56;;;9.18;36.42
83664;BME280;73634;47.068;15.426;2024-01-30T08:41:26;99347.56;;;10.20;35.19
83664;BME280;73634;47.068;15.426;2024-01-30T08:43:52;99332.94;;;11.56;32.19
83664;BME280;73634;47.068;15.426;2024-01-30T08:46:18;99340.13;;;12.60;30.33
83664;BME280;73634;47.068;15.426;2024-01-30T08:48:43;99342.63;;;12.72;30.50
83664;BME280;73634;47.068;15.426;2024-01-30T08:51:09;99329.16;;;12.85;29.85
83664;BME280;73634;47.068;15.426;2024-01-30T08:53:35;99325.44;;;13.98;27.79
83664;BME280;73634;47.068;15.426;2024-01-30T08:56:02;99324.00;;;16.22;24.70
83664;BME280;73634;47.068;15.426;2024-01-30T08:58:27;99325.41;;;15.79;24.73
83664;BME280;73634;47.068;15.426;2024-01-30T09:00:53;99325.31;;;16.15;24.55
83664;BME280;73634;47.068;15.426;2024-01-30T09:05:38;99321.44;;;15.26;25.14
83664;BME280;73634;47.068;15.426;2024-01-30T09:08:03;99328.97;;;14.77;26.22
83664;BME280;73634;47.068;15.426;2024-01-30T09:10:29;99321.19;;;15.93;24.71
83664;BME280;73634;47.068;15.426;2024-01-30T09:12:54;99326.38;;;16.14;24.57
83664;BME280;73634;47.068;15.426;2024-01-30T09:15:22;99319.88;;;17.15;22.64
83664;BME280;73634;47.068;15.426;2024-01-30T09:17:48;99318.94;;;17.63;22.15
83664;BME280;73634;47.068;15.426;2024-01-30T09:20:13;99314.84;;;17.86;21.74
83664;BME280;73634;47.068;15.426;2024-01-30T09:22:38;99320.22;;;18.24;21.06
83664;BME280;73634;47.068;15.426;2024-01-30T09:25:04;99332.03;;;16.51;23.79
83664;BME280;73634;47.068;15.426;2024-01-30T09:27:30;99325.06;;;14.99;25.58
83664;BME280;73634;47.068;15.426;2024-01-30T09:31:03;99331.31;;;16.30;24.32
83664;BME280;73634;47.068;15.426;2024-01-30T09:33:29;99319.31;;;18.10;21.83
83664;BME280;73634;47.068;15.426;2024-01-30T09:35:54;99323.56;;;16.70;24.07
83664;BME280;73634;47.068;15.426;2024-01-30T09:38:19;99322.16;;;17.26;22.18
83664;BME280;73634;47.068;15.426;2024-01-30T09:40:51;99325.94;;;16.61;23.10
83664;BME280;73634;47.068;15.426;2024-01-30T09:43:20;99315.28;;;17.30;22.45
83664;BME280;73634;47.068;15.426;2024-01-30T09:45:48;99314.13;;;18.90;21.82
83664;BME280;73634;47.068;15.426;2024-01-30T09:48:15;99307.19;;;19.64;19.55
83664;BME280;73634;47.068;15.426;2024-01-30T09:50:40;99314.69;;;20.44;19.46
83664;BME280;73634;47.068;15.426;2024-01-30T09:55:30;99316.50;;;18.49;21.69
83664;BME280;73634;47.068;15.426;2024-01-30T09:57:56;99312.16;;;17.23;23.51
83664;BME280;73634;47.068;15.426;2024-01-30T10:00:21;99311.31;;;16.94;23.22
83664;BME280;73634;47.068;15.426;2024-01-30T10:02:52;99308.78;;;18.10;22.11
83664;BME280;73634;47.068;15.426;2024-01-30T10:05:19;99302.22;;;19.44;20.78
83664;BME280;73634;47.068;15.426;2024-01-30T10:07:53;99301.06;;;18.80;21.07
83664;BME280;73634;47.068;15.426;2024-01-30T10:10:22;99303.03;;;20.18;19.83
83664;BME280;73634;47.068;15.426;2024-01-30T10:12:48;99300.31;;;21.53;17.97
83664;BME280;73634;47.068;15.426;2024-01-30T10:15:14;99296.59;;;22.34;17.56
83664;BME280;73634;47.068;15.426;2024-01-30T10:20:13;99296.97;;;22.84;17.05
83664;BME280;73634;47.068;15.426;2024-01-30T10:22:43;99291.09;;;22.13;17.82
83664;BME280;73634;47.068;15.426;2024-01-30T10:25:09;99296.84;;;20.63;19.03
83664;BME280;73634;47.068;15.426;2024-01-30T10:27:35;99290.69;;;20.90;18.43
83664;BME280;73634;47.068;15.426;2024-01-30T10:30:00;99284.44;;;17.70;22.55
83664;BME280;73634;47.068;15.426;2024-01-30T10:32:26;99292.25;;;18.71;21.61
83664;BME280;73634;47.068;15.426;2024-01-30T10:34:52;99284.34;;;18.71;21.26
83664;BME280;73634;47.068;15.426;2024-01-30T10:37:18;99273.56;;;18.86;21.00
83664;BME280;73634;47.068;15.426;2024-01-30T10:39:45;99269.59;;;18.27;21.90
83664;BME280;73634;47.068;15.426;2024-01-30T10:45:11;99273.59;;;18.00;22.30
83664;BME280;73634;47.068;15.426;2024-01-30T10:47:48;99259.50;;;19.09;20.81
83664;BME280;73634;47.068;15.426;2024-01-30T10:50:14;99253.69;;;20.13;19.40
83664;BME280;73634;47.068;15.426;2024-01-30T10:52:40;99250.28;;;17.31;22.87
83664;BME280;73634;47.068;15.426;2024-01-30T10:55:07;99258.22;;;17.26;23.29
83664;BME280;73634;47.068;15.426;2024-01-30T10:57:34;99248.06;;;17.48;23.03
83664;BME280;73634;47.068;15.426;2024-01-30T11:00:12;99247.41;;;18.52;21.87
83664;BME280;73634;47.068;15.426;2024-01-30T11:02:43;99254.03;;;15.72;24.41
83664;BME280;73634;47.068;15.426;2024-01-30T11:05:10;99235.63;;;18.68;21.87
83664;BME280;73634;47.068;15.426;2024-01-30T11:09:30;99243.69;;;13.76;28.40
83664;BME280;73634;47.068;15.426;2024-01-30T11:12:02;99240.16;;;15.41;25.91
83664;BME280;73634;47.068;15.426;2024-01-30T11:14:30;99218.13;;;17.92;23.00
83664;BME280;73634;47.068;15.426;2024-01-30T11:16:59;99226.25;;;15.46;25.82
83664;BME280;73634;47.068;15.426;2024-01-30T11:19:31;99228.97;;;16.05;25.28
83664;BME280;73634;47.068;15.426;2024-01-30T11:21:56;99218.59;;;18.60;21.81
83664;BME280;73634;47.068;15.426;2024-01-30T11:24:23;99221.50;;;20.11;20.31
83664;BME280;73634;47.068;15.426;2024-01-30T11:26:55;99214.09;;;20.49;19.64
83664;BME280;73634;47.068;15.426;2024-01-30T11:29:25;99219.66;;;17.45;22.74
83664;BME280;73634;47.068;15.426;2024-01-30T11:31:54;99210.09;;;16.96;23.63
83664;BME280;73634;47.068;15.426;2024-01-30T11:35:26;99210.88;;;16.53;24.41
83664;BME280;73634;47.068;15.426;2024-01-30T11:37:52;99205.09;;;16.95;24.11
83664;BME280;73634;47.068;15.426;2024-01-30T11:40:19;99215.53;;;15.12;26.68
83664;BME280;73634;47.068;15.426;2024-01-30T11:42:45;99207.06;;;13.34;28.69
83664;BME280;73634;47.068;15.426;2024-01-30T11:45:12;99208.03;;;12.64;30.37
83664;BME280;73634;47.068;15.426;2024-01-30T11:47:38;99204.34;;;13.56;29.06
83664;BME280;73634;47.068;15.426;2024-01-30T11:50:04;99201.13;;;14.79;27.18
83664;BME280;73634;47.068;15.426;2024-01-30T11:52:33;99202.06;;;15.69;25.73
83664;BME280;73634;47.068;15.426;2024-01-30T11:54:58;99202.25;;;15.98;25.32
83664;BME280;73634;47.068;15.426;2024-01-30T12:00:17;99181.53;;;19.03;21.64
83664;BME280;73634;47.068;15.426;2024-01-30T12:02:53;99187.81;;;16.45;23.61
83664;BME280;73634;47.068;15.426;2024-01-30T12:05:23;99187.34;;;18.11;22.30
83664;BME280;73634;47.068;15.426;2024-01-30T12:07:48;99194.59;;;16.01;24.43
83664;BME280;73634;47.068;15.426;2024-01-30T12:10:14;99199.56;;;11.81;31.21
83664;BME280;73634;47.068;15.426;2024-01-30T12:12:45;99193.84;;;11.46;32.46
83664;BME280;73634;47.068;15.426;2024-01-30T12:15:12;99178.81;;;15.17;26.70
83664;BME280;73634;47.068;15.426;2024-01-30T12:17:38;99170.34;;;16.25;24.63
83664;BME280;73634;47.068;15.426;2024-01-30T12:20:07;99162.97;;;16.32;25.24
83664;BME280;73634;47.068;15.426;2024-01-30T12:24:19;99173.38;;;13.90;28.27
83664;BME280;73634;47.068;15.426;2024-01-30T12:26:44;99160.50;;;18.28;22.52
83664;BME280;73634;47.068;15.426;2024-01-30T12:29:10;99164.84;;;15.62;25.22
83664;BME280;73634;47.068;15.426;2024-01-30T12:31:36;99161.59;;;15.90;25.41
83664;BME280;73634;47.068;15.426;2024-01-30T12:34:01;99159.84;;;17.27;23.30
83664;BME280;73634;47.068;15.426;2024-01-30T12:36:28;99155.19;;;16.90;23.87
83664;BME280;73634;47.068;15.426;2024-01-30T12:39:00;99154.22;;;16.81;24.00
83664;BME280;73634;47.068;15.426;2024-01-30T12:41:31;99155.47;;;19.15;21.04
83664;BME280;73634;47.068;15.426;2024-01-30T12:43:57;99154.09;;;15.48;25.03
83664;BME280;73634;47.068;15.426;2024-01-30T12:48:45;99151.19;;;15.65;25.45
83664;BME280;73634;47.068;15.426;2024-01-30T12:51:10;99138.88;;;18.31;22.24
83664;BME280;73634;47.068;15.426;2024-01-30T12:53:36;99135.41;;;16.63;24.59
83664;BME280;73634;47.068;15.426;2024-01-30T12:56:01;99142.06;;;15.57;25.41
83664;BME280;73634;47.068;15.426;2024-01-30T12:58:27;99144.41;;;14.17;27.46
83664;BME280;73634;47.068;15.426;2024-01-30T13:01:01;99137.13;;;17.12;23.99
83664;BME280;73634;47.068;15.426;2024-01-30T13:03:27;99132.28;;;16.95;23.60
83664;BME280;73634;47.068;15.426;2024-01-30T13:05:53;99135.47;;;16.14;24.26
83664;BME280;73634;47.068;15.426;2024-01-30T13:08:18;99140.03;;;15.04;26.71
83664;BME280;73634;47.068;15.426;2024-01-30T13:13:14;99128.25;;;15.96;25.62
83664;BME280;73634;47.068;15.426;2024-01-30T13:15:39;99122.09;;;16.50;24.23
83664;BME280;73634;47.068;15.426;2024-01-30T13:18:06;99123.63;;;16.90;23.96
83664;BME280;73634;47.068;15.426;2024-01-30T13:20:31;99122.22;;;17.26;23.45
83664;BME280;73634;47.068;15.426;2024-01-30T13:22:57;99127.88;;;16.13;25.13
83664;BME280;73634;47.068;15.426;2024-01-30T13:25:22;99125.69;;;16.25;25.35
83664;BME280;73634;47.068;15.426;2024-01-30T13:27:47;99118.78;;;18.16;22.79
83664;BME280;73634;47.068;15.426;2024-01-30T13:30:13;99119.09;;;18.47;21.98
83664;BME280;73634;47.068;15.426;2024-01-30T13:32:39;99129.50;;;16.04;25.13
83664;BME280;73634;47.068;15.426;2024-01-30T13:37:32;99130.84;;;13.10;29.73
83664;BME280;73634;47.068;15.426;2024-01-30T13:39:57;99141.09;;;12.85;30.72
83664;BME280;73634;47.068;15.426;2024-01-30T13:42:23;99140.31;;;13.21;29.72
83664;BME280;73634;47.068;15.426;2024-01-30T13:44:48;99139.13;;;13.39;30.54
83664;BME280;73634;47.068;15.426;2024-01-30T13:47:14;99131.63;;;14.35;28.94
83664;BME280;73634;47.068;15.426;2024-01-30T13:49:39;99129.06;;;14.66;27.75
83664;BME280;73634;47.068;15.426;2024-01-30T13:52:05;99128.25;;;15.06;27.69
83664;BME280;73634;47.068;15.426;2024-01-30T13:54:30;99129.66;;;15.63;26.43